Time;durP1;ratioP1;P1;durP2;ratioP2;P2;SDS_P1;SDS_P2;PMS_P1;PMS_P2;Temp;Humidity;BMP_temperature;BMP_pressure;BME280_temperature;BME280_humidity;BME280_pressure;Samples;Min_cycle;Max_cycle;Signal;HPM_P1;HPM_P2
2022/11/22 00:00:40;;;;;;;17.85;12.00;;;;;;;;;;5064970;28;20051;-60
2022/11/22 00:03:06;;;;;;;;;;;;;;;;;;5064684;28;19972;-60
2022/11/22 00:05:32;;;;;;;19.52;13.05;;;;;;;;;;5065974;28;20363;-60
2022/11/22 00:07:58;;;;;;;19.45;12.93;;;;;;;;;;5065657;28;20041;-60
2022/11/22 00:10:24;;;;;;;20.48;12.52;;;;;;;;;;5064519;28;20052;-60
2022/11/22 00:12:50;;;;;;;18.58;11.35;;;;;;;;;;5063289;28;20051;-60
2022/11/22 00:15:16;;;;;;;19.35;12.07;;;;;;;;;;5065491;28;20041;-60
2022/11/22 00:17:42;;;;;;;;;;;;;;;;;;5065233;28;20087;-60
2022/11/22 00:20:10;;;;;;;;;;;;;;;;;;5065480;28;19989;-60
2022/11/22 00:22:36;;;;;;;;;;;;;;;;;;5098625;28;19963;-60
2022/11/22 00:25:02;;;;;;;;;;;;;;;;;;5065083;28;19971;-60
2022/11/22 00:27:28;;;;;;;;;;;;;;;;;;5065748;28;20561;-60
2022/11/22 00:29:54;;;;;;;;;;;;;;;;;;5065017;28;19959;-60
2022/11/22 00:32:20;;;;;;;;;;;;;;;;;;5064923;28;19954;-60
2022/11/22 00:34:46;;;;;;;;;;;;;;;;;;5065055;28;20015;-60
2022/11/22 00:37:12;;;;;;;;;;;;;;;;;;5065673;28;19940;-60
2022/11/22 00:39:37;;;;;;;;;;;;;;;;;;5066808;28;19927;-60
2022/11/22 00:42:03;;;;;;;;;;;;;;;;;;5069592;28;19924;-60
2022/11/22 00:44:29;;;;;;;;;;;;;;;;;;5069452;28;19974;-60
2022/11/22 00:46:56;;;;;;;;;;;;;;;;;;5068305;28;19924;-60
2022/11/22 00:49:21;;;;;;;;;;;;;;;;;;5069577;28;20037;-60
2022/11/22 00:51:47;;;;;;;;;;;;;;;;;;5069478;28;19986;-60
2022/11/22 00:54:13;;;;;;;;;;;;;;;;;;5068585;28;19924;-60
2022/11/22 00:56:39;;;;;;;;;;;;;;;;;;5069390;28;19927;-60
2022/11/22 00:59:05;;;;;;;;;;;;;;;;;;5068651;28;19920;-59
2022/11/22 01:01:31;;;;;;;;;;;;;;;;;;5067423;28;19931;-60
2022/11/22 01:03:57;;;;;;;;;;;;;;;;;;5068213;28;19921;-60
2022/11/22 01:06:23;;;;;;;;;;;;;;;;;;5067302;28;19924;-60
2022/11/22 01:08:49;;;;;;;;;;;;;;;;;;5068562;28;20007;-60
2022/11/22 01:11:15;;;;;;;;;;;;;;;;;;5068607;28;19925;-60
2022/11/22 01:13:41;;;;;;;;;;;;;;;;;;5067812;28;19928;-60
2022/11/22 01:16:07;;;;;;;;;;;;;;;;;;5068082;28;19979;-59
2022/11/22 01:18:32;;;;;;;;;;;;;;;;;;5067771;28;19927;-60
2022/11/22 01:20:58;;;;;;;;;;;;;;;;;;5067380;28;20390;-60
2022/11/22 01:23:24;;;;;;;;;;;;;;;;;;5067757;28;19924;-60
2022/11/22 01:25:50;;;;;;;;;;;;;;;;;;5068418;28;19924;-60
2022/11/22 01:28:16;;;;;;;;;;;;;;;;;;5067272;28;19924;-59
2022/11/22 01:30:42;;;;;;;17.50;12.73;;;;;;;;;;5068558;28;20470;-60
2022/11/22 01:33:08;;;;;;;;;;;;;;;;;;5067941;28;20132;-60
2022/11/22 01:35:34;;;;;;;;;;;;;;;;;;5067900;28;20015;-59
2022/11/22 01:38:00;;;;;;;18.20;12.40;;;;;;;;;;5068462;28;19920;-60
2022/11/22 01:40:26;;;;;;;21.30;13.40;;;;;;;;;;5067505;28;20037;-60
2022/11/22 01:42:52;;;;;;;;;;;;;;;;;;5067090;28;19925;-60
2022/11/22 01:45:33;;;;;;;17.42;11.98;;;;;;;;;;5067947;28;20469;-61
2022/11/22 01:48:05;;;;;;;23.55;14.27;;;;;;;;;;5066076;28;20048;-60
2022/11/22 01:50:33;;;;;;;19.17;13.88;;;;;;;;;;5065276;28;20046;-60
2022/11/22 01:53:03;;;;;;;23.60;15.63;;;;;;;;;;5067661;28;20087;-60
2022/11/22 01:55:29;;;;;;;21.40;14.43;;;;;;;;;;5067566;28;20044;-60
2022/11/22 01:57:56;;;;;;;18.02;13.13;;;;;;;;;;5066982;28;20131;-60
2022/11/22 02:00:22;;;;;;;18.35;13.32;;;;;;;;;;5067495;28;20036;-60
2022/11/22 02:02:54;;;;;;;24.70;16.00;;;;;;;;;;5067275;28;20129;-60
2022/11/22 02:05:21;;;;;;;21.43;14.50;;;;;;;;;;5066801;28;20040;-60
2022/11/22 02:07:54;;;;;;;21.10;14.38;;;;;;;;;;5063366;28;20483;-60
2022/11/22 02:10:22;;;;;;;18.77;13.43;;;;;;;;;;5066152;28;20052;-60
2022/11/22 02:12:50;;;;;;;26.35;15.35;;;;;;;;;;5067209;28;20083;-59
2022/11/22 02:15:16;;;;;;;;;;;;;;;;;;5066722;28;20531;-60
2022/11/22 02:17:42;;;;;;;;;;;;;;;;;;5066810;28;19977;-60
2022/11/22 02:20:07;;;;;;;;;;;;;;;;;;5066803;28;19920;-60
2022/11/22 02:22:33;;;;;;;;;;;;;;;;;;5066953;28;20306;-60
2022/11/22 02:24:59;;;;;;;;;;;;;;;;;;5066165;28;19928;-60
2022/11/22 02:27:25;;;;;;;;;;;;;;;;;;5066940;28;19924;-60
2022/11/22 02:29:51;;;;;;;;;;;;;;;;;;5066658;28;19924;-60
2022/11/22 02:32:17;;;;;;;;;;;;;;;;;;5065682;28;19930;-60
2022/11/22 02:34:43;;;;;;;;;;;;;;;;;;5066867;28;19924;-59
2022/11/22 02:37:09;;;;;;;;;;;;;;;;;;5066853;28;19924;-60
2022/11/22 02:39:35;;;;;;;;;;;;;;;;;;5066220;28;20390;-60
2022/11/22 02:42:00;;;;;;;;;;;;;;;;;;5066574;28;19926;-60
2022/11/22 02:44:26;;;;;;;;;;;;;;;;;;5066806;28;19924;-60
2022/11/22 02:46:52;;;;;;;;;;;;;;;;;;5066085;28;19935;-61
2022/11/22 02:49:18;;;;;;;;;;;;;;;;;;5066370;28;19924;-60
2022/11/22 02:51:44;;;;;;;;;;;;;;;;;;5066378;28;19924;-59
2022/11/22 02:54:10;;;;;;;;;;;;;;;;;;5065115;28;20264;-60
2022/11/22 02:56:36;;;;;;;;;;;;;;;;;;5066286;28;19927;-60
2022/11/22 02:59:02;;;;;;;;;;;;;;;;;;5065988;28;19924;-60
2022/11/22 03:01:28;;;;;;;;;;;;;;;;;;5066628;28;19928;-60
2022/11/22 03:03:53;;;;;;;;;;;;;;;;;;5066340;28;19924;-60
2022/11/22 03:06:19;;;;;;;;;;;;;;;;;;5066292;28;20359;-60
2022/11/22 03:08:47;;;;;;;;;;;;;;;;;;5066641;28;19920;-60
2022/11/22 03:11:13;;;;;;;;;;;;;;;;;;5065810;28;19921;-60
2022/11/22 03:13:39;;;;;;;;;;;;;;;;;;5066008;28;20007;-59
2022/11/22 03:16:05;;;;;;;;;;;;;;;;;;5065823;28;20282;-60
2022/11/22 03:18:31;;;;;;;;;;;;;;;;;;5066648;28;19926;-60
2022/11/22 03:20:57;;;;;;;;;;;;;;;;;;5064801;28;19927;-60
2022/11/22 03:23:23;;;;;;;;;;;;;;;;;;5065957;28;19924;-60
2022/11/22 03:25:48;;;;;;;;;;;;;;;;;;5066139;28;19920;-59
2022/11/22 03:28:14;;;;;;;;;;;;;;;;;;5064569;28;19928;-60
2022/11/22 03:30:40;;;;;;;;;;;;;;;;;;5065697;28;19920;-60
2022/11/22 03:33:06;;;;;;;;;;;;;;;;;;5065490;28;19927;-59
2022/11/22 03:35:32;;;;;;;;;;;;;;;;;;5064983;28;19924;-60
2022/11/22 03:37:58;;;;;;;;;;;;;;;;;;5066207;28;19920;-60
2022/11/22 03:40:24;;;;;;;;;;;;;;;;;;5064724;28;20383;-61
2022/11/22 03:42:50;;;;;;;;;;;;;;;;;;5064294;28;19971;-60
2022/11/22 03:45:16;;;;;;;;;;;;;;;;;;5065122;28;19924;-60
2022/11/22 03:47:42;;;;;;;;;;;;;;;;;;5066015;28;19924;-58
2022/11/22 03:50:08;;;;;;;;;;;;;;;;;;5065200;28;20251;-58
2022/11/22 03:52:33;;;;;;;;;;;;;;;;;;5081453;28;19978;-58
2022/11/22 03:54:59;;;;;;;;;;;;;;;;;;5065625;28;19928;-58
2022/11/22 03:57:25;;;;;;;;;;;;;;;;;;5064850;28;19935;-58
2022/11/22 03:59:51;;;;;;;;;;;;;;;;;;5066120;28;20405;-58
2022/11/22 04:02:17;;;;;;;;;;;;;;;;;;5065183;28;20052;-58
2022/11/22 04:04:43;;;;;;;;;;;;;;;;;;5066140;28;19924;-58
2022/11/22 04:07:09;;;;;;;;;;;;;;;;;;5065261;28;19927;-59
2022/11/22 04:09:35;;;;;;;;;;;;;;;;;;5065244;28;19928;-58
2022/11/22 04:12:01;;;;;;;;;;;;;;;;;;5064307;28;19959;-58
2022/11/22 04:17:11;;;;;;;;;;;;;;;;;;5068287;28;19928;-58
2022/11/22 04:19:37;;;;;;;;;;;;;;;;;;5069910;28;19924;-59
2022/11/22 04:22:03;;;;;;;;;;;;;;;;;;5067640;28;19920;-58
2022/11/22 04:27:13;;;;;;;;;;;;;;;;;;5069169;28;19924;-59
2022/11/22 04:29:39;;;;;;;;;;;;;;;;;;5069621;28;20272;-58
2022/11/22 04:34:50;;;;;;;;;;;;;;;;;;5069841;28;20439;-59
2022/11/22 04:37:15;;;;;;;;;;;;;;;;;;5069017;28;20003;-59
2022/11/22 04:39:41;;;;;;;;;;;;;;;;;;5069619;28;19928;-58
2022/11/22 04:44:52;;;;;;;;;;;;;;;;;;5068231;28;20050;-58
2022/11/22 04:47:57;;;;;;;;;;;;;;;;;;5069256;28;20024;-59
2022/11/22 04:52:52;;;;;;;;;;;;;;;;;;5068668;28;19986;-58
2022/11/22 04:52:53;;;;;;;;;;;;;;;;;;5065755;28;19931;-59
2022/11/22 04:55:19;;;;;;;;;;;;;;;;;;5069061;28;19920;-58
2022/11/22 04:57:45;;;;;;;;;;;;;;;;;;5069263;28;19966;-58
2022/11/22 05:00:11;;;;;;;;;;;;;;;;;;5068225;28;20294;-58
2022/11/22 05:02:37;;;;;;;13.82;10.65;;;;;;;;;;5067969;28;19924;-58
2022/11/22 05:05:03;;;;;;;;;;;;;;;;;;5068760;28;20040;-58
2022/11/22 05:07:28;;;;;;;;;;;;;;;;;;5068350;28;19928;-58
2022/11/22 05:09:54;;;;;;;;;;;;;;;;;;5068016;28;19925;-58
2022/11/22 05:12:20;;;;;;;;;;;;;;;;;;5067907;28;19931;-58
2022/11/22 05:14:46;;;;;;;;;;;;;;;;;;5067218;28;19935;-59
2022/11/22 05:17:12;;;;;;;;;;;;;;;;;;5065257;28;19993;-59
2022/11/22 05:19:38;;;;;;;;;;;;;;;;;;5067027;28;19928;-58
2022/11/22 05:22:04;;;;;;;;;;;;;;;;;;5067227;28;19928;-58
2022/11/22 05:24:30;;;;;;;10.30;8.82;;;;;;;;;;5066900;28;19925;-58
2022/11/22 05:26:56;;;;;;;11.13;8.80;;;;;;;;;;5066077;28;20044;-58
2022/11/22 05:29:22;;;;;;;14.02;9.98;;;;;;;;;;5067141;28;20080;-58
2022/11/22 05:31:48;;;;;;;14.20;11.02;;;;;;;;;;5067513;28;20059;-58
2022/11/22 05:34:14;;;;;;;15.82;11.00;;;;;;;;;;5066530;28;20053;-59
2022/11/22 05:36:40;;;;;;;16.50;12.70;;;;;;;;;;5066757;28;20043;-58
2022/11/22 05:39:06;;;;;;;12.88;10.73;;;;;;;;;;5067004;28;20036;-59
2022/11/22 05:41:32;;;;;;;;;;;;;;;;;;5065846;28;20044;-58
2022/11/22 05:43:57;;;;;;;;;;;;;;;;;;5067576;28;19920;-58
2022/11/22 05:46:23;;;;;;;;;;;;;;;;;;5066689;28;19931;-58
2022/11/22 05:48:49;;;;;;;;;;;;;;;;;;5066832;28;19927;-59
2022/11/22 05:51:15;;;;;;;;;;;;;;;;;;5067336;28;19928;-58
2022/11/22 05:53:41;;;;;;;;;;;;;;;;;;5068066;28;19975;-59
2022/11/22 05:56:10;;;;;;;11.45;9.27;;;;;;;;;;5067102;28;20270;-58
2022/11/22 05:58:36;;;;;;;13.13;8.90;;;;;;;;;;5066181;28;20040;-58
2022/11/22 06:01:07;;;;;;;9.77;7.50;;;;;;;;;;5067498;28;20090;-58
2022/11/22 06:03:34;;;;;;;8.57;7.18;;;;;;;;;;5064195;28;20124;-58
2022/11/22 06:06:00;;;;;;;8.25;7.38;;;;;;;;;;5066381;28;20517;-58
2022/11/22 06:08:27;;;;;;;6.95;6.07;;;;;;;;;;5066855;28;20045;-58
2022/11/22 06:10:53;;;;;;;7.80;6.40;;;;;;;;;;5029627;28;1043836;-58
2022/11/22 06:13:19;;;;;;;7.45;6.32;;;;;;;;;;5071315;28;20044;-58
2022/11/22 06:15:45;;;;;;;9.80;7.60;;;;;;;;;;5067277;28;20123;-58
2022/11/22 06:18:11;;;;;;;10.65;7.82;;;;;;;;;;5066675;28;20048;-58
2022/11/22 06:20:37;;;;;;;12.25;8.63;;;;;;;;;;5067228;28;20036;-58
2022/11/22 06:23:03;;;;;;;10.50;8.68;;;;;;;;;;5066001;28;20044;-58
2022/11/22 06:25:29;;;;;;;12.88;8.00;;;;;;;;;;5066081;28;20124;-58
2022/11/22 06:27:58;;;;;;;10.95;8.93;;;;;;;;;;5067130;28;20375;-58
2022/11/22 06:30:24;;;;;;;12.95;9.07;;;;;;;;;;5058580;28;20072;-58
2022/11/22 06:32:50;;;;;;;9.88;8.07;;;;;;;;;;5066878;28;20037;-58
2022/11/22 06:35:16;;;;;;;8.27;7.18;;;;;;;;;;5068029;28;20481;-58
2022/11/22 06:37:42;;;;;;;8.45;6.95;;;;;;;;;;5064893;28;20600;-58
2022/11/22 06:40:10;;;;;;;8.38;6.40;;;;;;;;;;5066091;28;20126;-59
2022/11/22 06:42:36;;;;;;;8.60;6.60;;;;;;;;;;5065951;28;20450;-58
2022/11/22 06:45:02;;;;;;;9.05;7.03;;;;;;;;;;5065404;28;20015;-58
2022/11/22 06:47:28;;;;;;;10.55;7.82;;;;;;;;;;5066455;28;20044;-59
2022/11/22 06:49:54;;;;;;;9.93;7.82;;;;;;;;;;5066808;28;20047;-58
2022/11/22 06:52:20;;;;;;;8.52;6.53;;;;;;;;;;5065988;28;20673;-58
2022/11/22 06:54:46;;;;;;;9.88;6.93;;;;;;;;;;5066516;28;20119;-58
2022/11/22 06:57:13;;;;;;;7.40;6.50;;;;;;;;;;5097821;27;20163;-59
2022/11/22 06:59:39;;;;;;;8.82;6.88;;;;;;;;;;5065568;28;20040;-58
2022/11/22 07:02:05;;;;;;;7.43;6.15;;;;;;;;;;5065267;28;20044;-58
2022/11/22 07:04:31;;;;;;;8.68;7.03;;;;;;;;;;5066320;28;20089;-58
2022/11/22 07:06:57;;;;;;;8.77;7.47;;;;;;;;;;5065709;28;20044;-59
2022/11/22 07:09:23;;;;;;;8.60;7.18;;;;;;;;;;5066198;28;20059;-58
2022/11/22 07:11:49;;;;;;;9.63;7.55;;;;;;;;;;5066512;28;20071;-58
2022/11/22 07:14:15;;;;;;;;;;;;;;;;;;5066071;28;20474;-59
2022/11/22 07:16:41;;;;;;;;;;;;;;;;;;5065115;28;19978;-59
2022/11/22 07:19:07;;;;;;;;;;;;;;;;;;5064886;28;20774;-59
2022/11/22 07:21:35;;;;;;;10.17;8.70;;;;;;;;;;5065352;28;20034;-58
2022/11/22 07:24:01;;;;;;;10.13;8.30;;;;;;;;;;5065891;28;20048;-59
2022/11/22 07:26:27;;;;;;;10.48;8.02;;;;;;;;;;5064431;28;20040;-58
2022/11/22 07:28:53;;;;;;;12.95;8.38;;;;;;;;;;5065409;28;20051;-60
2022/11/22 07:31:19;;;;;;;11.15;7.88;;;;;;;;;;5066381;28;20127;-58
2022/11/22 07:33:46;;;;;;;8.18;7.43;;;;;;;;;;5065296;28;20047;-58
2022/11/22 07:36:13;;;;;;;7.57;6.78;;;;;;;;;;5065157;28;20056;-58
2022/11/22 07:38:39;;;;;;;7.20;6.50;;;;;;;;;;5065115;28;20110;-58
2022/11/22 07:41:06;;;;;;;7.57;6.53;;;;;;;;;;5065179;28;20048;-58
2022/11/22 07:43:32;;;;;;;7.10;5.95;;;;;;;;;;5065357;28;20044;-58
2022/11/22 07:46:02;;;;;;;7.90;6.93;;;;;;;;;;5064748;28;20048;-58
2022/11/22 07:48:28;;;;;;;7.80;6.43;;;;;;;;;;5063752;28;20044;-59
2022/11/22 07:50:54;;;;;;;6.82;6.10;;;;;;;;;;5065412;28;20040;-59
2022/11/22 07:53:20;;;;;;;7.38;6.47;;;;;;;;;;5065466;28;20040;-59
2022/11/22 07:55:46;;;;;;;11.90;7.35;;;;;;;;;;5064440;28;20045;-59
2022/11/22 07:58:12;;;;;;;9.68;6.32;;;;;;;;;;5064894;28;20055;-59
2022/11/22 08:00:39;;;;;;;6.22;5.60;;;;;;;;;;5064698;28;20041;-60
2022/11/22 08:03:06;;;;;;;6.70;6.00;;;;;;;;;;5065059;28;20128;-60
2022/11/22 08:05:32;;;;;;;11.43;6.05;;;;;;;;;;5064954;28;20043;-59
2022/11/22 08:07:58;;;;;;;8.13;6.13;;;;;;;;;;5065209;28;20131;-60
2022/11/22 08:10:24;;;;;;;7.90;5.63;;;;;;;;;;5064195;28;20577;-61
2022/11/22 08:12:50;;;;;;;10.27;5.88;;;;;;;;;;5080467;28;20098;-60
2022/11/22 08:15:16;;;;;;;13.65;5.50;;;;;;;;;;5064522;28;20047;-61
2022/11/22 08:17:42;;;;;;;7.68;5.00;;;;;;;;;;5067611;28;20045;-60
2022/11/22 08:20:09;;;;;;;7.75;4.05;;;;;;;;;;5097495;28;20052;-61
2022/11/22 08:22:39;;;;;;;9.05;4.82;;;;;;;;;;5064835;28;20116;-60
2022/11/22 08:25:11;;;;;;;8.38;4.68;;;;;;;;;;5065183;28;20048;-61
2022/11/22 08:27:37;;;;;;;7.83;4.40;;;;;;;;;;5063796;28;20048;-60
2022/11/22 08:30:03;;;;;;;9.23;4.40;;;;;;;;;;5064056;28;20492;-60
2022/11/22 08:32:29;;;;;;;10.45;6.00;;;;;;;;;;5063834;28;20040;-60
2022/11/22 08:34:55;;;;;;;8.57;4.35;;;;;;;;;;5066371;28;20159;-60
2022/11/22 08:37:21;;;;;;;8.93;4.60;;;;;;;;;;5068575;28;20403;-60
2022/11/22 08:39:47;;;;;;;8.15;4.05;;;;;;;;;;5066092;28;20040;-61
2022/11/22 08:42:13;;;;;;;8.27;3.72;;;;;;;;;;5064990;28;20389;-61
2022/11/22 08:44:39;;;;;;;6.28;4.22;;;;;;;;;;5064967;28;20124;-59
2022/11/22 08:47:05;;;;;;;7.43;4.15;;;;;;;;;;5066916;28;20044;-56
2022/11/22 08:49:31;;;;;;;8.93;3.60;;;;;;;;;;5066153;28;20052;-58
2022/11/22 08:51:57;;;;;;;7.72;3.58;;;;;;;;;;5065317;28;20040;-60
2022/11/22 08:54:23;;;;;;;9.43;4.00;;;;;;;;;;5064766;28;20084;-57
2022/11/22 08:56:48;;;;;;;4.30;3.00;;;;;;;;;;5065252;28;20048;-64
2022/11/22 08:59:14;;;;;;;7.50;3.15;;;;;;;;;;5063760;28;20052;-60
2022/11/22 09:01:40;;;;;;;7.28;4.50;;;;;;;;;;5068438;28;20052;-60
2022/11/22 09:04:06;;;;;;;7.13;3.30;;;;;;;;;;5068713;28;20040;-61
2022/11/22 09:06:32;;;;;;;9.50;3.55;;;;;;;;;;5068096;28;20041;-60
2022/11/22 09:08:58;;;;;;;5.70;2.92;;;;;;;;;;5069084;28;20561;-60
2022/11/22 09:11:24;;;;;;;9.13;3.92;;;;;;;;;;5069151;28;20048;-61
2022/11/22 09:13:50;;;;;;;9.93;3.83;;;;;;;;;;5069033;28;20123;-60
2022/11/22 09:16:18;;;;;;;5.65;2.92;;;;;;;;;;5067601;28;20529;-60
2022/11/22 09:18:44;;;;;;;7.75;3.78;;;;;;;;;;5062808;28;20071;-60
2022/11/22 09:21:14;;;;;;;13.13;3.80;;;;;;;;;;5074117;28;20049;-61
2022/11/22 09:23:40;;;;;;;11.50;3.38;;;;;;;;;;5099282;28;20051;-61
2022/11/22 09:26:08;;;;;;;8.32;2.95;;;;;;;;;;5065889;28;20653;-61
2022/11/22 09:28:34;;;;;;;6.97;3.38;;;;;;;;;;5065128;28;20054;-62
2022/11/22 09:31:01;;;;;;;4.63;2.40;;;;;;;;;;5070836;28;20044;-60
2022/11/22 09:33:27;;;;;;;7.97;3.00;;;;;;;;;;5067020;28;20043;-60
2022/11/22 09:36:00;;;;;;;9.93;3.10;;;;;;;;;;5085156;28;20047;-60
2022/11/22 09:38:27;;;;;;;8.63;2.90;;;;;;;;;;5068579;28;20718;-59
2022/11/22 09:40:53;;;;;;;7.20;3.33;;;;;;;;;;5066275;28;20638;-60
2022/11/22 09:43:26;;;;;;;7.40;2.97;;;;;;;;;;5068245;28;20131;-59
2022/11/22 09:45:55;;;;;;;6.40;2.95;;;;;;;;;;5068982;28;20131;-61
2022/11/22 09:48:40;;;;;;;10.73;3.78;;;;;;;;;;5069662;28;20044;-60
2022/11/22 09:51:09;;;;;;;5.70;2.30;;;;;;;;;;5067320;28;20052;-60
2022/11/22 09:53:48;;;;;;;15.25;3.95;;;;;;;;;;5068767;28;20052;-61
2022/11/22 09:56:18;;;;;;;7.45;3.60;;;;;;;;;;5067865;28;20120;-61
2022/11/22 09:58:56;;;;;;;8.95;2.72;;;;;;;;;;5067068;28;20138;-59
2022/11/22 10:01:22;;;;;;;9.43;3.47;;;;;;;;;;5066524;28;20036;-60
2022/11/22 10:03:57;;;;;;;9.43;4.13;;;;;;;;;;5073618;28;20044;-61
2022/11/22 10:06:26;;;;;;;9.98;3.78;;;;;;;;;;5067099;28;20055;-61
2022/11/22 10:08:58;;;;;;;8.65;3.50;;;;;;;;;;5065264;28;20040;-60
2022/11/22 10:11:44;;;;;;;7.00;3.25;;;;;;;;;;5064453;28;20518;-61
2022/11/22 10:14:16;;;;;;;6.90;3.17;;;;;;;;;;5067386;28;20051;-61
2022/11/22 10:16:55;;;;;;;11.60;4.80;;;;;;;;;;5061551;28;20099;-59
2022/11/22 10:19:29;;;;;;;8.02;3.90;;;;;;;;;;5059379;28;20072;-59
2022/11/22 10:21:55;;;;;;;9.27;3.70;;;;;;;;;;5058829;28;20448;-61
2022/11/22 10:24:21;;;;;;;7.63;3.67;;;;;;;;;;5070533;28;20036;-60
2022/11/22 10:26:47;;;;;;;5.75;2.53;;;;;;;;;;5064032;28;20054;-60
2022/11/22 10:29:30;;;;;;;6.00;3.00;;;;;;;;;;5056760;28;20052;-61
2022/11/22 10:32:11;;;;;;;6.65;3.05;;;;;;;;;;5047838;28;20056;-61
2022/11/22 10:34:54;;;;;;;5.70;3.38;;;;;;;;;;5063422;28;20048;-61
2022/11/22 10:37:39;;;;;;;7.38;2.30;;;;;;;;;;5066062;28;20044;-61
2022/11/22 10:40:10;;;;;;;3.45;1.80;;;;;;;;;;5056802;28;20503;-61
2022/11/22 10:42:56;;;;;;;5.07;2.10;;;;;;;;;;5073349;28;20636;-61
2022/11/22 10:45:41;;;;;;;3.60;2.05;;;;;;;;;;5064822;28;20498;-60
2022/11/22 10:48:10;;;;;;;6.38;2.30;;;;;;;;;;5074618;28;20067;-61
2022/11/22 10:50:54;;;;;;;6.82;2.45;;;;;;;;;;5069180;28;20043;-61
2022/11/22 10:53:38;;;;;;;5.63;1.90;;;;;;;;;;5060577;28;20052;-62
2022/11/22 10:56:11;;;;;;;6.65;1.95;;;;;;;;;;5057819;28;20062;-60
2022/11/22 10:58:40;;;;;;;6.35;2.28;;;;;;;;;;5070681;28;20037;-60
2022/11/22 11:01:06;;;;;;;5.03;1.98;;;;;;;;;;5061149;28;20752;-61
2022/11/22 11:03:33;;;;;;;6.90;1.90;;;;;;;;;;5067079;28;20045;-61
2022/11/22 11:05:59;;;;;;;2.95;2.10;;;;;;;;;;5065162;28;20041;-61
2022/11/22 11:08:29;;;;;;;8.57;2.38;;;;;;;;;;5072331;28;20041;-61
2022/11/22 11:10:56;;;;;;;4.70;1.40;;;;;;;;;;5076899;28;20047;-61
2022/11/22 11:13:25;;;;;;;4.40;1.77;;;;;;;;;;5063444;28;20514;-60
2022/11/22 11:15:53;;;;;;;6.15;1.92;;;;;;;;;;5065556;28;20506;-61
2022/11/22 11:18:22;;;;;;;5.22;2.35;;;;;;;;;;5064542;28;20849;-62
2022/11/22 11:20:50;;;;;;;7.07;1.90;;;;;;;;;;5066235;28;20047;-61
2022/11/22 11:23:16;;;;;;;5.00;1.83;;;;;;;;;;5065601;28;20061;-60
2022/11/22 11:25:43;;;;;;;2.67;1.27;;;;;;;;;;5065649;28;20493;-61
2022/11/22 11:28:11;;;;;;;5.40;1.83;;;;;;;;;;5066112;28;20071;-61
2022/11/22 11:30:39;;;;;;;2.65;1.30;;;;;;;;;;5066203;28;20036;-58
2022/11/22 11:33:15;;;;;;;4.68;1.48;;;;;;;;;;5065564;28;20054;-59
2022/11/22 11:35:41;;;;;;;2.33;1.50;;;;;;;;;;5066582;28;20471;-59
2022/11/22 11:38:25;;;;;;;2.40;1.30;;;;;;;;;;5064939;28;20139;-59
2022/11/22 11:40:51;;;;;;;3.58;1.42;;;;;;;;;;5065097;28;20048;-59
2022/11/22 11:43:21;;;;;;;6.93;1.67;;;;;;;;;;5066591;28;20044;-59
2022/11/22 11:45:48;;;;;;;5.07;1.92;;;;;;;;;;5065570;28;20048;-59
2022/11/22 11:48:34;;;;;;;6.40;2.05;;;;;;;;;;5064583;28;20055;-59
2022/11/22 11:51:17;;;;;;;5.07;1.70;;;;;;;;;;5046805;28;20049;-59
2022/11/22 11:54:01;;;;;;;3.13;1.67;;;;;;;;;;5045734;28;20044;-59
2022/11/22 11:56:29;;;;;;;4.70;1.50;;;;;;;;;;5054623;28;20044;-58
2022/11/22 11:58:57;;;;;;;6.05;1.92;;;;;;;;;;5066394;28;20057;-59
2022/11/22 12:01:24;;;;;;;6.57;2.08;;;;;;;;;;5065446;28;20047;-59
2022/11/22 12:03:55;;;;;;;2.88;1.40;;;;;;;;;;5066917;28;20041;-59
2022/11/22 12:06:26;;;;;;;5.93;1.48;;;;;;;;;;5064445;28;20048;-59
2022/11/22 12:08:52;;;;;;;2.53;1.63;;;;;;;;;;5060270;28;20588;-59
2022/11/22 12:11:25;;;;;;;6.60;1.92;;;;;;;;;;5063905;28;20143;-59
2022/11/22 12:13:55;;;;;;;3.60;1.33;;;;;;;;;;5066518;28;20041;-59
2022/11/22 12:16:30;;;;;;;4.00;1.58;;;;;;;;;;5064902;28;20514;-60
2022/11/22 12:19:15;;;;;;;6.07;1.23;;;;;;;;;;5065411;28;20127;-59
2022/11/22 12:21:53;;;;;;;5.22;1.80;;;;;;;;;;5063657;28;20686;-59
2022/11/22 12:24:22;;;;;;;5.00;1.38;;;;;;;;;;5065106;28;20040;-59
2022/11/22 12:26:48;;;;;;;5.13;1.70;;;;;;;;;;5065920;28;20040;-58
2022/11/22 12:29:15;;;;;;;4.10;1.30;;;;;;;;;;5064653;28;20436;-59
2022/11/22 12:31:44;;;;;;;2.58;1.50;;;;;;;;;;5065968;28;20622;-59
2022/11/22 12:34:42;;;;;;;4.53;1.73;;;;;;;;;;5065761;28;20051;-59
2022/11/22 12:37:20;;;;;;;3.95;1.60;;;;;;;;;;5034726;28;20143;-59
2022/11/22 12:39:48;;;;;;;4.22;1.35;;;;;;;;;;5068065;28;20106;-59
2022/11/22 12:42:13;;;;;;;5.60;1.02;;;;;;;;;;5067405;28;20064;-59
2022/11/22 12:44:42;;;;;;;4.60;1.15;;;;;;;;;;5068053;28;20041;-59
2022/11/22 12:47:13;;;;;;;4.32;1.15;;;;;;;;;;5068394;28;20052;-59
2022/11/22 12:49:51;;;;;;;3.85;1.38;;;;;;;;;;5066404;28;20054;-59
2022/11/22 12:52:35;;;;;;;4.95;1.52;;;;;;;;;;5067839;28;20044;-59
2022/11/22 12:55:08;;;;;;;4.20;1.55;;;;;;;;;;5069451;28;20040;-59
2022/11/22 12:57:50;;;;;;;4.93;2.13;;;;;;;;;;5068812;28;20560;-59
2022/11/22 13:00:23;;;;;;;4.35;1.20;;;;;;;;;;5068955;28;20645;-59
2022/11/22 13:02:56;;;;;;;6.65;1.63;;;;;;;;;;5069794;28;20456;-58
2022/11/22 13:05:23;;;;;;;4.18;1.48;;;;;;;;;;5068817;28;20045;-59
2022/11/22 13:08:08;;;;;;;1.40;0.70;;;;;;;;;;5069406;28;20406;-58
2022/11/22 13:10:39;;;;;;;4.60;1.08;;;;;;;;;;5069413;28;20123;-58
2022/11/22 13:13:09;;;;;;;2.22;0.93;;;;;;;;;;5068369;28;20488;-58
2022/11/22 13:15:36;;;;;;;2.67;1.13;;;;;;;;;;5069680;28;20045;-59
2022/11/22 13:18:07;;;;;;;2.55;1.48;;;;;;;;;;5068348;28;20127;-59
2022/11/22 13:20:36;;;;;;;2.72;1.08;;;;;;;;;;5069097;28;20040;-59
2022/11/22 13:23:21;;;;;;;3.53;1.38;;;;;;;;;;5069163;28;20061;-58
2022/11/22 13:25:56;;;;;;;2.13;1.20;;;;;;;;;;5067559;28;20040;-59
2022/11/22 13:28:24;;;;;;;2.25;0.95;;;;;;;;;;5068254;28;20815;-58
2022/11/22 13:31:06;;;;;;;2.20;1.02;;;;;;;;;;5068709;28;20123;-58
2022/11/22 13:33:32;;;;;;;;;;;;;;;;;;5064866;28;20050;-59
2022/11/22 13:36:17;;;;;;;2.97;1.17;;;;;;;;;;5068274;28;20007;-60
2022/11/22 13:38:44;;;;;;;3.85;1.10;;;;;;;;;;5064614;28;20505;-60
2022/11/22 13:41:28;;;;;;;4.43;1.42;;;;;;;;;;5067029;28;20052;-60
2022/11/22 13:43:55;;;;;;;2.63;1.00;;;;;;;;;;5063120;28;20040;-60
2022/11/22 13:46:40;;;;;;;1.60;0.68;;;;;;;;;;5066066;28;20040;-60
2022/11/22 13:49:07;;;;;;;2.38;1.40;;;;;;;;;;5067709;28;20044;-60
2022/11/22 13:51:50;;;;;;;2.22;0.93;;;;;;;;;;5067574;28;20044;-59
2022/11/22 13:54:35;;;;;;;4.60;0.88;;;;;;;;;;5070409;28;20071;-59
2022/11/22 13:57:03;;;;;;;2.15;0.80;;;;;;;;;;5067754;28;20513;-60
2022/11/22 13:59:29;;;;;;;3.40;2.03;;;;;;;;;;5067701;28;20056;-59
2022/11/22 14:01:56;;;;;;;5.63;1.13;;;;;;;;;;5066934;28;20044;-60
2022/11/22 14:04:28;;;;;;;4.25;0.95;;;;;;;;;;5067070;28;20093;-60
2022/11/22 14:06:57;;;;;;;3.60;0.70;;;;;;;;;;5090910;28;20117;-60
2022/11/22 14:09:41;;;;;;;2.42;0.52;;;;;;;;;;5056868;28;20088;-60
2022/11/22 14:12:10;;;;;;;1.75;0.88;;;;;;;;;;5053732;28;20076;-59
2022/11/22 14:14:46;;;;;;;0.98;0.77;;;;;;;;;;5055437;28;20415;-59
2022/11/22 14:17:31;;;;;;;2.85;0.70;;;;;;;;;;5053203;28;20106;-60
2022/11/22 14:20:06;;;;;;;2.10;0.60;;;;;;;;;;5054411;28;20490;-59
2022/11/22 14:22:32;;;;;;;1.35;0.77;;;;;;;;;;5064152;28;20376;-59
2022/11/22 14:25:17;;;;;;;2.00;0.75;;;;;;;;;;5066028;28;20047;-59
2022/11/22 14:27:43;;;;;;;2.05;0.70;;;;;;;;;;5067312;28;20276;-59
2022/11/22 14:30:22;;;;;;;2.50;0.80;;;;;;;;;;5067107;28;20550;-59
2022/11/22 14:32:49;;;;;;;1.70;0.70;;;;;;;;;;5067264;28;20118;-59
2022/11/22 14:35:21;;;;;;;1.65;0.77;;;;;;;;;;5066189;28;20048;-59
2022/11/22 14:37:57;;;;;;;3.58;0.73;;;;;;;;;;5066831;28;20044;-59
2022/11/22 14:40:32;;;;;;;3.28;0.77;;;;;;;;;;5066621;28;20059;-59
2022/11/22 14:43:00;;;;;;;2.65;0.93;;;;;;;;;;5066311;28;20044;-60
2022/11/22 14:45:26;;;;;;;0.88;0.45;;;;;;;;;;5066703;28;20063;-59
2022/11/22 14:47:52;;;;;;;1.15;0.60;;;;;;;;;;5067818;28;20403;-59
2022/11/22 14:50:36;;;;;;;2.33;1.27;;;;;;;;;;5066601;28;20102;-59
2022/11/22 14:53:18;;;;;;;2.17;0.95;;;;;;;;;;5067141;28;20048;-59
2022/11/22 14:55:44;;;;;;;1.48;0.77;;;;;;;;;;5066768;28;20040;-59
2022/11/22 14:58:13;;;;;;;1.00;0.70;;;;;;;;;;5065020;28;20083;-59
2022/11/22 15:00:39;;;;;;;3.15;0.75;;;;;;;;;;5066048;28;20048;-60
2022/11/22 15:03:23;;;;;;;0.95;0.63;;;;;;;;;;5066305;28;20044;-59
2022/11/22 15:05:55;;;;;;;1.75;0.63;;;;;;;;;;5066579;28;20134;-59
2022/11/22 15:08:38;;;;;;;1.00;0.55;;;;;;;;;;5066499;28;20113;-59
2022/11/22 15:11:23;;;;;;;2.72;0.45;;;;;;;;;;5063797;28;20414;-60
2022/11/22 15:13:49;;;;;;;1.67;0.80;;;;;;;;;;5066467;28;20053;-60
2022/11/22 15:16:17;;;;;;;1.30;0.40;;;;;;;;;;5066628;28;20044;-59
2022/11/22 15:18:50;;;;;;;1.65;0.50;;;;;;;;;;5066281;28;20056;-59
2022/11/22 15:21:17;;;;;;;1.33;0.50;;;;;;;;;;5065794;28;20101;-59
2022/11/22 15:23:43;;;;;;;2.75;0.63;;;;;;;;;;5064088;28;20135;-59
2022/11/22 15:26:15;;;;;;;1.45;0.70;;;;;;;;;;5065303;28;20037;-59
2022/11/22 15:28:45;;;;;;;0.60;0.50;;;;;;;;;;5066387;28;20045;-60
2022/11/22 15:31:15;;;;;;;1.40;0.55;;;;;;;;;;5066064;28;20045;-59
2022/11/22 15:33:44;;;;;;;2.20;0.82;;;;;;;;;;5065087;28;20049;-59
2022/11/22 15:36:30;;;;;;;0.60;0.45;;;;;;;;;;5081429;28;20051;-59